Time;durP1;ratioP1;P1;durP2;ratioP2;P2;SDS_P1;SDS_P2;PMS_P1;PMS_P2;Temp;Humidity;BMP_temperature;BMP_pressure;BME280_temperature;BME280_humidity;BME280_pressure;Samples;Min_cycle;Max_cycle;Signal;HPM_P1;HPM_P2
2022/05/02 00:02:25;;;;;;;5.18;4.20;;;20.40;60.30;;;;;;5007345;28;93079;-64
2022/05/02 00:04:51;;;;;;;5.85;3.90;;;20.40;60.40;;;;;;5006576;28;93253;-64
2022/05/02 00:07:17;;;;;;;4.88;3.70;;;20.30;60.40;;;;;;5006253;28;92427;-65
2022/05/02 00:09:43;;;;;;;5.60;4.30;;;20.40;60.40;;;;;;5014309;28;91910;-65
2022/05/02 00:12:09;;;;;;;5.28;4.35;;;20.30;60.30;;;;;;5007029;28;92952;-65
2022/05/02 00:14:35;;;;;;;4.82;3.92;;;20.30;60.10;;;;;;5007318;28;93270;-64
2022/05/02 00:17:01;;;;;;;4.90;4.40;;;20.30;60.20;;;;;;5007440;28;93138;-64
2022/05/02 00:19:26;;;;;;;4.97;4.28;;;20.30;60.10;;;;;;5007420;28;93213;-64
2022/05/02 00:21:52;;;;;;;6.07;4.45;;;20.30;60.30;;;;;;5005975;28;93649;-64
2022/05/02 00:24:18;;;;;;;5.03;4.38;;;20.30;60.20;;;;;;5007332;28;92611;-64
2022/05/02 00:26:43;;;;;;;4.22;3.83;;;20.30;60.00;;;;;;5007551;28;92654;-64
2022/05/02 00:29:09;;;;;;;4.28;3.63;;;20.30;60.00;;;;;;5007225;28;92916;-64
2022/05/02 00:31:35;;;;;;;5.18;4.30;;;20.30;60.20;;;;;;5006274;28;92656;-64
2022/05/02 00:34:01;;;;;;;5.03;4.13;;;20.30;60.00;;;;;;5006277;28;92729;-64
2022/05/02 00:36:26;;;;;;;4.85;4.13;;;20.30;60.20;;;;;;5004742;28;92988;-64
2022/05/02 00:38:52;;;;;;;4.85;4.13;;;20.30;60.10;;;;;;5006147;28;92287;-65
2022/05/02 00:41:19;;;;;;;5.55;3.80;;;20.30;59.90;;;;;;5005854;28;93828;-65
2022/05/02 00:43:45;;;;;;;4.88;4.20;;;20.30;60.00;;;;;;5004644;28;96635;-64
2022/05/02 00:46:23;;;;;;;4.35;3.95;;;20.30;60.00;;;;;;5007420;28;92002;-64
2022/05/02 00:48:49;;;;;;;5.28;4.65;;;20.30;59.90;;;;;;5007312;28;92174;-65
2022/05/02 00:51:16;;;;;;;5.10;4.35;;;20.30;59.90;;;;;;5006688;28;93140;-65
2022/05/02 00:53:43;;;;;;;5.20;4.07;;;20.30;59.80;;;;;;5008654;28;94113;-65
2022/05/02 00:56:09;;;;;;;5.25;3.83;;;20.30;59.90;;;;;;5010627;28;92503;-64
2022/05/02 00:58:36;;;;;;;3.67;3.38;;;20.30;59.90;;;;;;5011143;28;92178;-66
2022/05/02 01:01:03;;;;;;;4.30;3.90;;;20.20;59.90;;;;;;5008108;28;94224;-64
2022/05/02 01:03:29;;;;;;;6.28;4.03;;;20.30;59.80;;;;;;5009991;28;93188;-65
2022/05/02 01:08:41;;;;;;;4.20;3.78;;;20.20;59.80;;;;;;5010247;28;92012;-65
2022/05/02 01:11:07;;;;;;;4.72;3.60;;;20.20;59.70;;;;;;5008591;28;94627;-64
2022/05/02 01:13:37;;;;;;;3.92;3.63;;;20.30;59.70;;;;;;5009990;28;92829;-65
2022/05/02 01:16:12;;;;;;;4.20;3.80;;;20.20;59.70;;;;;;5010026;28;92350;-64
2022/05/02 01:18:38;;;;;;;4.25;3.85;;;20.20;59.60;;;;;;5010415;28;92674;-65
2022/05/02 01:21:13;;;;;;;4.57;4.05;;;20.20;59.70;;;;;;5010812;27;93273;-64
2022/05/02 01:23:39;;;;;;;4.25;3.70;;;20.30;59.80;;;;;;5010719;28;92803;-64
2022/05/02 01:26:04;;;;;;;4.68;3.70;;;20.20;59.70;;;;;;5009023;28;92230;-64
2022/05/02 01:28:30;;;;;;;6.15;4.53;;;20.20;59.70;;;;;;5007860;28;93044;-65
2022/05/02 01:30:57;;;;;;;4.20;3.78;;;20.20;59.60;;;;;;5006555;28;97062;-65
2022/05/02 01:33:23;;;;;;;4.57;4.18;;;20.20;59.60;;;;;;5008239;28;96930;-65
2022/05/02 01:35:48;;;;;;;6.47;3.75;;;20.20;59.20;;;;;;5010750;28;91952;-64
2022/05/02 01:38:14;;;;;;;4.25;3.83;;;20.20;59.60;;;;;;5010604;28;92688;-65
2022/05/02 01:40:40;;;;;;;4.20;3.80;;;20.20;59.50;;;;;;5009730;28;92938;-64
2022/05/02 01:43:05;;;;;;;4.22;3.83;;;20.20;59.50;;;;;;5007328;28;95550;-64
2022/05/02 01:45:31;;;;;;;5.88;4.15;;;20.20;59.50;;;;;;5010168;28;92523;-65
2022/05/02 01:47:57;;;;;;;4.22;3.65;;;20.20;59.50;;;;;;5009480;28;91249;-64
2022/05/02 01:50:22;;;;;;;4.60;4.10;;;20.20;59.40;;;;;;5008637;28;94703;-64
2022/05/02 01:52:48;;;;;;;4.38;3.97;;;20.20;59.60;;;;;;5008272;28;96157;-64
2022/05/02 01:55:14;;;;;;;3.85;3.53;;;20.20;59.50;;;;;;5009196;28;93692;-64
2022/05/02 01:57:39;;;;;;;4.78;3.80;;;20.20;59.30;;;;;;5011967;28;93034;-65
2022/05/02 02:00:05;;;;;;;4.07;3.67;;;20.20;59.30;;;;;;5008931;28;93221;-64
2022/05/02 02:02:31;;;;;;;4.57;4.18;;;20.20;59.30;;;;;;5019824;22;93757;-86
2022/05/02 02:07:41;;;;;;;5.10;3.20;;;20.20;59.40;;;;;;5009247;28;92434;-83
2022/05/02 02:10:07;;;;;;;4.13;3.72;;;20.20;59.40;;;;;;5008807;28;93727;-85
2022/05/02 02:12:32;;;;;;;3.72;3.42;;;20.20;59.40;;;;;;4997644;28;91947;-88
2022/05/02 02:14:58;;;;;;;4.10;3.70;;;20.10;59.20;;;;;;4998203;28;92512;-88
2022/05/02 02:17:24;;;;;;;4.22;3.80;;;20.20;59.40;;;;;;4998987;28;92987;-88
2022/05/02 02:19:49;;;;;;;4.13;3.67;;;20.10;59.10;;;;;;4997900;28;93371;-83
2022/05/02 02:22:18;;;;;;;3.80;3.50;;;20.10;59.20;;;;;;4994841;28;94911;-87
2022/05/02 02:24:46;;;;;;;4.18;3.78;;;20.10;59.20;;;;;;4997765;28;92770;-87
2022/05/02 02:27:12;;;;;;;4.30;3.83;;;20.10;59.10;;;;;;4999703;28;92026;-88
2022/05/02 02:29:37;;;;;;;5.10;4.38;;;20.10;59.10;;;;;;4996128;28;94134;-89
2022/05/02 02:32:04;;;;;;;4.82;3.38;;;20.10;59.00;;;;;;4996415;28;92393;-88
2022/05/02 02:34:29;;;;;;;4.88;3.90;;;20.10;59.00;;;;;;5000469;28;91999;-85
2022/05/02 02:36:55;;;;;;;4.78;3.67;;;20.10;59.20;;;;;;5000651;28;91281;-89
2022/05/02 02:39:20;;;;;;;4.90;3.95;;;20.10;59.10;;;;;;5001510;28;92586;-88
2022/05/02 02:41:46;;;;;;;5.22;3.83;;;20.10;59.10;;;;;;4998977;28;92229;-88
2022/05/02 02:44:12;;;;;;;4.15;3.78;;;20.10;59.10;;;;;;4999789;28;93836;-88
2022/05/02 02:46:38;;;;;;;5.07;4.00;;;20.10;59.00;;;;;;5000201;28;92863;-83
2022/05/02 02:49:03;;;;;;;5.15;3.78;;;20.10;59.20;;;;;;4997404;28;94315;-88
2022/05/02 02:51:29;;;;;;;4.43;3.58;;;20.10;59.20;;;;;;5000663;28;92486;-87
2022/05/02 02:53:55;;;;;;;4.13;3.72;;;20.10;59.10;;;;;;5000567;28;92880;-86
2022/05/02 02:56:20;;;;;;;3.97;3.58;;;20.10;59.10;;;;;;4998413;28;92769;-87
2022/05/02 02:58:46;;;;;;;3.80;3.47;;;20.10;59.20;;;;;;5000255;28;92821;-86
2022/05/02 03:01:12;;;;;;;4.53;4.13;;;20.10;59.80;;;;;;4995589;28;93120;-87
2022/05/02 03:03:37;;;;;;;5.30;4.38;;;20.10;59.30;;;;;;5000511;28;92647;-85
2022/05/02 03:06:04;;;;;;;4.10;3.70;;;20.00;59.00;;;;;;5001289;28;92328;-86
2022/05/02 03:08:34;;;;;;;4.28;3.70;;;20.00;59.10;;;;;;4995445;28;94551;-86
2022/05/02 03:11:00;;;;;;;4.15;3.75;;;20.10;59.10;;;;;;5001102;28;94322;-89
2022/05/02 03:13:26;;;;;;;4.45;4.00;;;20.10;59.30;;;;;;4999262;28;92062;-87
2022/05/02 03:15:51;;;;;;;3.90;3.50;;;20.00;59.10;;;;;;4994422;28;92592;-88
2022/05/02 03:18:17;;;;;;;4.78;4.10;;;20.00;59.10;;;;;;4998702;28;93242;-88
2022/05/02 03:20:43;;;;;;;4.20;3.72;;;20.00;59.20;;;;;;4992483;28;93465;-88
2022/05/02 03:23:09;;;;;;;4.53;4.13;;;20.00;59.10;;;;;;5000142;28;92496;-89
2022/05/02 03:25:34;;;;;;;4.45;4.05;;;20.00;59.20;;;;;;4998707;28;92235;-87
2022/05/02 03:28:08;;;;;;;4.00;3.70;;;20.00;59.20;;;;;;5001591;28;93243;-88
2022/05/02 03:30:34;;;;;;;4.03;3.67;;;20.00;59.10;;;;;;4997912;28;92401;-88
2022/05/02 03:33:01;;;;;;;4.28;3.70;;;20.00;59.20;;;;;;4996976;28;93278;-89
2022/05/02 03:35:26;;;;;;;4.40;4.00;;;20.00;59.10;;;;;;4998337;28;93135;-87
2022/05/02 03:38:12;;;;;;;4.22;3.90;;;20.00;59.00;;;;;;5039994;27;85650;-65
2022/05/02 03:40:37;;;;;;;5.28;4.45;;;20.00;59.20;;;;;;5031644;27;86848;-65
2022/05/02 03:43:03;;;;;;;4.65;4.25;;;20.00;59.20;;;;;;5043853;27;86318;-65
2022/05/02 03:45:29;;;;;;;4.50;4.10;;;20.00;59.20;;;;;;5032150;27;87329;-65
2022/05/02 03:47:54;;;;;;;3.95;3.65;;;20.00;59.10;;;;;;5047331;27;86122;-64
2022/05/02 03:50:20;;;;;;;4.25;3.85;;;19.90;59.10;;;;;;5034025;27;86038;-65
2022/05/02 03:52:46;;;;;;;4.20;3.80;;;20.00;59.20;;;;;;5035144;27;86202;-64
2022/05/02 03:55:12;;;;;;;4.40;4.00;;;20.00;58.90;;;;;;5037278;27;87467;-65
2022/05/02 03:57:37;;;;;;;4.25;3.88;;;20.00;59.10;;;;;;5041682;27;86655;-64
2022/05/02 04:00:15;;;;;;;4.40;4.00;;;19.90;59.00;;;;;;5040757;22;87608;-65
2022/05/02 04:02:42;;;;;;;4.68;3.72;;;20.00;59.00;;;;;;4994741;28;86123;-65
2022/05/02 04:05:08;;;;;;;3.78;3.47;;;19.90;58.80;;;;;;4995163;28;87407;-66
2022/05/02 04:07:34;;;;;;;4.88;4.32;;;19.90;58.80;;;;;;5000915;28;85679;-66
2022/05/02 04:10:00;;;;;;;4.30;3.90;;;19.90;58.80;;;;;;4993279;28;86903;-65
2022/05/02 04:12:25;;;;;;;4.15;3.85;;;19.90;58.90;;;;;;4998270;28;86306;-65
2022/05/02 04:14:51;;;;;;;4.13;3.63;;;19.90;58.80;;;;;;4996432;28;89778;-65
2022/05/02 04:17:17;;;;;;;4.50;4.10;;;19.90;59.40;;;;;;4997949;28;86223;-65
2022/05/02 04:19:42;;;;;;;4.30;3.90;;;19.90;59.00;;;;;;4998429;28;86360;-64
2022/05/02 04:22:11;;;;;;;4.40;4.00;;;19.90;59.00;;;;;;4995010;28;86526;-65
2022/05/02 04:24:36;;;;;;;4.20;3.80;;;19.90;58.80;;;;;;4990709;28;86546;-65
2022/05/02 04:27:02;;;;;;;5.30;3.90;;;19.90;58.80;;;;;;4999107;28;85825;-65
2022/05/02 04:29:28;;;;;;;4.53;3.85;;;19.90;58.80;;;;;;4994804;28;85725;-64
2022/05/02 04:31:53;;;;;;;8.73;5.40;;;19.90;58.90;;;;;;4996367;28;86260;-65
2022/05/02 04:34:19;;;;;;;7.57;6.72;;;19.90;57.10;;;;;;4992285;28;86942;-65
2022/05/02 04:36:45;;;;;;;7.03;4.75;;;19.70;56.20;;;;;;4992859;28;89940;-65
2022/05/02 04:39:10;;;;;;;7.72;4.35;;;19.70;57.30;;;;;;4992309;28;85736;-65
2022/05/02 04:41:36;;;;;;;9.30;4.50;;;19.80;58.50;;;;;;4995209;28;86366;-64
2022/05/02 04:44:02;;;;;;;9.88;4.00;;;19.80;58.50;;;;;;4991191;28;86806;-64
2022/05/02 04:46:29;;;;;;;8.93;4.55;;;19.80;58.50;;;;;;4994830;28;86385;-64
2022/05/02 04:48:55;;;;;;;5.53;4.18;;;19.90;58.20;;;;;;4986280;28;86477;-64
2022/05/02 04:51:21;;;;;;;5.78;5.00;;;19.90;58.30;;;;;;4981619;28;86308;-64
2022/05/02 04:53:46;;;;;;;5.18;4.38;;;19.80;57.90;;;;;;4979244;28;86148;-64
2022/05/02 04:56:14;;;;;;;5.38;4.68;;;19.90;58.30;;;;;;4983054;28;86501;-65
2022/05/02 04:58:42;;;;;;;4.63;4.22;;;19.90;58.40;;;;;;4986771;28;86664;-65
2022/05/02 05:01:08;;;;;;;8.80;4.80;;;19.90;58.40;;;;;;4978095;28;86336;-65
2022/05/02 05:03:35;;;;;;;7.25;4.50;;;19.90;58.60;;;;;;4977144;28;89795;-64
2022/05/02 05:06:01;;;;;;;6.53;4.75;;;19.90;58.50;;;;;;4977734;28;89165;-64
2022/05/02 05:08:26;;;;;;;6.53;4.70;;;19.90;58.60;;;;;;4977240;28;86189;-64
2022/05/02 05:11:04;;;;;;;4.65;3.90;;;19.90;58.60;;;;;;4981522;28;86560;-64
2022/05/02 05:13:44;;;;;;;4.68;3.90;;;19.90;57.60;;;;;;4979986;28;86332;-65
2022/05/02 05:16:36;;;;;;;4.65;4.00;;;19.90;56.30;;;;;;4980417;28;86150;-65
2022/05/02 05:19:13;;;;;;;7.20;4.38;;;19.90;56.80;;;;;;4982566;28;86063;-65
2022/05/02 05:22:00;;;;;;;7.00;3.83;;;19.90;57.00;;;;;;4981291;28;86235;-65
2022/05/02 05:24:40;;;;;;;8.57;4.60;;;19.90;57.00;;;;;;4978776;28;87601;-65
2022/05/02 05:27:08;;;;;;;5.18;4.50;;;19.90;57.20;;;;;;4977685;28;86014;-65
2022/05/02 05:29:46;;;;;;;5.70;4.57;;;19.90;57.10;;;;;;4979597;28;86786;-65
2022/05/02 05:32:27;;;;;;;4.65;4.25;;;19.90;56.90;;;;;;4978811;28;85991;-65
2022/05/02 05:34:59;;;;;;;6.60;4.38;;;19.90;57.10;;;;;;4986138;28;90164;-65
2022/05/02 05:37:45;;;;;;;8.00;4.43;;;19.90;57.00;;;;;;4979398;28;89158;-65
2022/05/02 05:40:29;;;;;;;5.68;4.47;;;19.90;57.00;;;;;;4978421;28;86394;-66
2022/05/02 05:43:21;;;;;;;6.22;4.57;;;19.90;57.00;;;;;;4985737;28;86667;-66
2022/05/02 05:46:13;;;;;;;6.28;4.43;;;19.90;56.80;;;;;;4979427;28;89747;-65
2022/05/02 05:49:00;;;;;;;19.75;13.40;;;19.90;57.00;;;;;;4975510;28;89462;-65
2022/05/02 05:52:06;;;;;;;10.63;9.18;;;19.60;49.40;;;;;;4975430;28;85975;-65
2022/05/02 05:55:07;;;;;;;7.63;6.38;;;19.60;53.20;;;;;;4933398;28;86558;-65
2022/05/02 05:57:36;;;;;;;6.68;5.80;;;19.70;56.60;;;;;;4942298;28;86881;-65
2022/05/02 06:00:11;;;;;;;6.32;5.70;;;19.70;57.40;;;;;;4973899;28;86727;-66
2022/05/02 06:02:54;;;;;;;6.25;5.65;;;19.80;57.00;;;;;;4976529;28;86332;-67
2022/05/02 06:05:20;;;;;;;7.75;5.47;;;19.90;56.90;;;;;;4980601;28;86334;-64
2022/05/02 06:07:47;;;;;;;7.13;5.85;;;19.90;57.00;;;;;;4984020;28;86243;-64
2022/05/02 06:10:16;;;;;;;10.05;6.00;;;20.00;57.30;;;;;;4985363;28;86091;-64
2022/05/02 06:12:43;;;;;;;7.07;5.18;;;19.90;57.80;;;;;;4982424;28;85659;-64
2022/05/02 06:20:45;;;;;;;12.18;5.20;;;20.00;58.00;;;;;;4978098;28;85556;-65
2022/05/02 06:23:13;;;;;;;10.18;5.50;;;20.00;58.00;;;;;;4977368;28;85597;-65
2022/05/02 06:25:43;;;;;;;9.27;4.95;;;20.10;57.90;;;;;;4986314;28;86384;-64
2022/05/02 06:28:09;;;;;;;8.85;5.45;;;20.10;57.80;;;;;;4977195;28;85806;-66
2022/05/02 06:30:37;;;;;;;9.35;5.18;;;20.10;57.80;;;;;;4900279;28;86746;-66
2022/05/02 06:33:12;;;;;;;5.00;4.55;;;20.10;58.00;;;;;;4946398;28;86316;-66
2022/05/02 06:35:50;;;;;;;12.75;5.75;;;20.10;58.00;;;;;;4951136;28;86173;-66
2022/05/02 06:38:34;;;;;;;12.95;6.53;;;20.10;58.20;;;;;;4951967;28;86936;-66
2022/05/02 06:40:59;;;;;;;11.30;6.75;;;20.10;58.20;;;;;;4951812;28;86874;-65
2022/05/02 06:43:33;;;;;;;12.15;6.18;;;20.10;58.40;;;;;;4950765;28;85640;-65
2022/05/02 06:46:19;;;;;;;16.15;8.30;;;20.10;58.20;;;;;;4950522;28;86376;-66
2022/05/02 06:48:59;;;;;;;16.55;8.82;;;20.10;57.90;;;;;;4947350;28;87077;-66
2022/05/02 06:51:35;;;;;;;29.92;11.02;;;20.10;57.50;;;;;;4966447;28;87817;-66
2022/05/02 06:54:26;;;;;;;41.88;15.32;;;20.10;57.20;;;;;;4947592;28;88047;-66
2022/05/02 06:57:16;;;;;;;28.85;12.35;;;20.10;57.60;;;;;;4950739;28;85637;-65
2022/05/02 06:59:53;;;;;;;30.73;12.18;;;20.10;57.80;;;;;;4945998;28;86943;-65
2022/05/02 07:02:42;;;;;;;39.63;13.43;;;20.20;57.70;;;;;;4949846;28;85661;-66
2022/05/02 07:05:22;;;;;;;38.17;13.35;;;20.10;58.40;;;;;;4950722;28;85644;-66
2022/05/02 07:08:05;;;;;;;;;;;20.20;58.50;;;;;;4949523;28;86417;-66
2022/05/02 07:10:36;;;;;;;40.88;14.85;;;20.20;58.60;;;;;;4952429;28;87552;-66
2022/05/02 07:13:32;;;;;;;45.22;16.00;;;20.20;58.80;;;;;;4948270;28;87023;-66
2022/05/02 07:16:21;;;;;;;35.38;15.60;;;20.20;59.10;;;;;;4948971;28;86456;-66
2022/05/02 07:18:55;;;;;;;38.30;15.23;;;20.20;59.30;;;;;;4949026;28;86129;-65
2022/05/02 07:21:37;;;;;;;39.47;15.18;;;20.20;59.50;;;;;;4965946;28;89535;-65
2022/05/02 07:24:33;;;;;;;37.35;15.25;;;20.20;59.50;;;;;;4950412;28;85795;-65
2022/05/02 07:27:26;;;;;;;36.85;15.30;;;20.20;59.40;;;;;;4931927;28;86353;-65
2022/05/02 07:29:57;;;;;;;45.40;15.25;;;20.20;59.60;;;;;;4950344;28;86630;-65
2022/05/02 07:32:24;;;;;;;42.70;16.10;;;20.20;59.70;;;;;;4951888;28;88012;-66
2022/05/02 07:34:54;;;;;;;34.10;15.63;;;20.20;59.60;;;;;;4950880;28;86314;-66
2022/05/02 07:37:24;;;;;;;34.67;14.63;;;20.20;59.70;;;;;;4949278;28;86906;-65
2022/05/02 07:39:51;;;;;;;31.65;14.20;;;20.20;59.60;;;;;;4950688;28;86208;-65
2022/05/02 07:42:19;;;;;;;37.38;15.43;;;20.20;59.70;;;;;;4951093;28;87030;-66
2022/05/02 07:44:47;;;;;;;35.58;15.07;;;20.20;59.90;;;;;;4951263;28;86273;-66
2022/05/02 07:47:17;;;;;;;31.92;14.68;;;20.20;59.70;;;;;;4950626;28;85816;-65
2022/05/02 07:49:51;;;;;;;38.20;14.68;;;20.20;59.90;;;;;;4950362;28;85685;-65
2022/05/02 07:52:21;;;;;;;32.40;13.95;;;20.20;59.90;;;;;;4950247;28;86744;-65
2022/05/02 07:54:49;;;;;;;31.17;13.93;;;20.30;60.00;;;;;;4951476;28;85793;-66
2022/05/02 07:57:16;;;;;;;36.25;14.30;;;20.20;59.80;;;;;;4948740;28;86739;-65
2022/05/02 07:59:43;;;;;;;34.97;15.02;;;20.20;59.90;;;;;;4949827;28;86053;-65
2022/05/02 08:02:09;;;;;;;25.90;14.05;;;20.30;59.90;;;;;;4952247;28;86361;-66
2022/05/02 08:04:37;;;;;;;33.47;14.90;;;20.30;59.90;;;;;;4949792;28;86045;-65
2022/05/02 08:07:35;;;;;;;37.20;13.80;;;20.30;60.00;;;;;;4950571;28;86142;-65
2022/05/02 08:10:39;;;;;;;32.78;14.25;;;20.30;60.00;;;;;;4950296;28;85602;-65
2022/05/02 08:13:33;;;;;;;26.33;13.13;;;20.30;59.90;;;;;;4948647;28;86840;-66
2022/05/02 08:16:04;;;;;;;33.65;13.30;;;20.30;60.00;;;;;;4950803;28;86152;-66
2022/05/02 08:18:59;;;;;;;25.77;13.27;;;20.30;60.10;;;;;;4949944;28;85829;-65
2022/05/02 08:21:32;;;;;;;29.48;13.80;;;20.30;59.90;;;;;;4950161;28;86535;-66
2022/05/02 08:27:16;;;;;;;29.80;12.88;;;20.30;59.90;;;;;;4952041;28;87250;-66
2022/05/02 08:30:19;;;;;;;34.85;13.63;;;20.30;59.90;;;;;;4954110;28;86710;-66
2022/05/02 08:32:45;;;;;;;24.48;11.88;;;20.30;60.10;;;;;;4953252;28;86166;-65
2022/05/02 08:35:16;;;;;;;29.02;12.65;;;20.30;60.10;;;;;;4953278;28;86845;-66
2022/05/02 08:38:22;;;;;;;22.65;11.90;;;20.30;60.00;;;;;;4951918;28;89285;-65
2022/05/02 08:41:09;;;;;;;27.95;12.65;;;20.30;60.20;;;;;;4954450;28;85800;-66
2022/05/02 08:44:03;;;;;;;29.08;13.15;;;20.30;60.20;;;;;;4953812;28;86922;-66
2022/05/02 08:47:06;;;;;;;31.02;13.27;;;20.30;60.30;;;;;;4952761;28;87016;-65
2022/05/02 08:49:49;;;;;;;29.10;13.85;;;20.30;61.30;;;;;;4952658;28;87107;-65
2022/05/02 08:52:53;;;;;;;25.88;12.55;;;20.30;60.20;;;;;;4951787;28;85849;-65
2022/05/02 08:55:27;;;;;;;24.35;13.00;;;20.40;60.40;;;;;;4953035;28;86559;-65
2022/05/02 08:58:23;;;;;;;21.98;10.90;;;20.40;60.30;;;;;;4961269;28;88148;-66
2022/05/02 09:01:24;;;;;;;21.55;12.25;;;20.40;60.30;;;;;;4950531;28;89005;-65
2022/05/02 09:04:01;;;;;;;30.35;12.18;;;20.40;60.10;;;;;;4941201;28;87205;-66
2022/05/02 09:06:46;;;;;;;24.25;11.60;;;20.40;60.30;;;;;;4946415;28;86293;-66
2022/05/02 09:09:39;;;;;;;25.67;11.63;;;20.40;60.20;;;;;;4951090;28;86823;-65
2022/05/02 09:12:35;;;;;;;28.88;12.68;;;20.40;60.10;;;;;;4951421;28;86541;-66
2022/05/02 09:15:37;;;;;;;25.80;11.40;;;20.40;60.30;;;;;;4951792;28;86037;-66
2022/05/02 09:18:09;;;;;;;25.05;12.25;;;20.40;59.60;;;;;;4951313;28;85726;-65
2022/05/02 09:20:53;;;;;;;24.77;11.82;;;20.40;59.60;;;;;;4947569;28;89518;-66
2022/05/02 09:23:57;;;;;;;24.25;11.38;;;20.40;59.50;;;;;;4928648;28;87177;-66
2022/05/02 09:26:35;;;;;;;27.42;11.75;;;20.40;59.40;;;;;;4953657;28;85873;-66
2022/05/02 09:29:28;;;;;;;28.70;12.80;;;20.40;59.50;;;;;;4950676;28;85744;-66
2022/05/02 09:31:59;;;;;;;21.15;11.13;;;20.50;59.50;;;;;;4952799;28;86075;-66
2022/05/02 09:34:44;;;;;;;25.50;11.32;;;20.40;59.20;;;;;;4952408;28;85987;-65
2022/05/02 09:37:21;;;;;;;21.05;10.60;;;20.40;59.10;;;;;;4950291;28;87290;-65
2022/05/02 09:39:57;;;;;;;21.90;11.02;;;20.40;59.40;;;;;;4949291;28;86233;-66
2022/05/02 09:42:56;;;;;;;18.80;11.15;;;20.40;59.50;;;;;;4948358;28;89366;-65
2022/05/02 09:51:48;;;;;;;22.70;11.18;;;20.50;59.50;;;;;;4951443;28;86186;-66
2022/05/02 09:56:37;;;;;;;24.25;10.45;;;20.60;59.00;;;;;;4949366;28;90425;-65
2022/05/02 09:57:21;;;;;;;23.00;11.50;;;20.60;58.40;;;;;;4951588;28;86957;-65
2022/05/02 10:01:06;;;;;;;26.55;9.98;;;20.50;59.10;;;;;;4950203;28;86827;-65
2022/05/02 10:02:58;;;;;;;24.02;10.88;;;20.50;59.20;;;;;;4952217;28;86271;-66
2022/05/02 10:05:40;;;;;;;25.65;10.23;;;20.50;59.20;;;;;;4955092;28;89692;-65
2022/05/02 10:08:21;;;;;;;21.08;10.05;;;20.50;59.70;;;;;;4948102;28;86511;-65
2022/05/02 10:10:56;;;;;;;24.38;11.18;;;20.50;59.50;;;;;;4951233;28;85695;-66
2022/05/02 10:13:39;;;;;;;23.17;10.57;;;20.50;59.80;;;;;;4950932;28;86239;-65
2022/05/02 10:16:18;;;;;;;17.85;9.40;;;20.50;60.00;;;;;;4950893;28;86830;-65
2022/05/02 10:19:07;;;;;;;23.10;10.43;;;20.50;60.20;;;;;;4950496;28;86900;-65
2022/05/02 10:21:57;;;;;;;19.23;10.38;;;20.50;60.30;;;;;;4950784;28;86316;-65
2022/05/02 10:24:56;;;;;;;12.57;7.18;;;20.50;60.10;;;;;;4950458;28;86274;-65
2022/05/02 10:27:37;;;;;;;16.50;7.55;;;20.50;55.80;;;;;;4951742;28;86261;-65
2022/05/02 10:30:03;;;;;;;21.45;9.00;;;20.40;56.70;;;;;;4941869;28;86293;-65
2022/05/02 10:32:32;;;;;;;17.90;8.85;;;20.40;58.40;;;;;;4944763;28;86130;-66
2022/05/02 10:35:02;;;;;;;15.03;8.50;;;20.40;58.60;;;;;;4943054;28;86375;-65
2022/05/02 10:37:33;;;;;;;18.85;9.18;;;20.40;57.90;;;;;;4943510;28;89124;-65
2022/05/02 10:40:10;;;;;;;11.00;6.68;;;20.40;57.80;;;;;;4940134;28;86419;-65
2022/05/02 10:42:42;;;;;;;14.85;7.00;;;20.40;56.10;;;;;;4960648;28;85815;-66
2022/05/02 10:45:10;;;;;;;15.85;8.32;;;20.30;56.00;;;;;;4942892;28;86622;-65
2022/05/02 10:47:53;;;;;;;14.02;7.10;;;20.30;56.10;;;;;;4943289;28;87984;-65
2022/05/02 10:50:34;;;;;;;13.63;8.00;;;20.30;55.90;;;;;;4943701;28;86226;-65
2022/05/02 10:53:22;;;;;;;11.77;7.13;;;20.30;56.20;;;;;;4959045;28;86108;-65
2022/05/02 10:56:19;;;;;;;12.48;7.35;;;20.30;56.20;;;;;;4945278;28;86179;-65
2022/05/02 10:58:46;;;;;;;15.00;8.05;;;20.30;56.30;;;;;;4943174;28;87459;-66
2022/05/02 11:01:51;;;;;;;15.57;7.75;;;20.30;57.40;;;;;;4942666;28;86549;-65
2022/05/02 11:04:22;;;;;;;15.20;7.78;;;20.30;57.30;;;;;;4944378;28;86116;-65
2022/05/02 11:07:08;;;;;;;16.13;7.35;;;20.30;56.60;;;;;;4944846;28;86090;-65
2022/05/02 11:09:33;;;;;;;15.43;7.55;;;20.30;54.20;;;;;;4943856;28;86851;-66
2022/05/02 11:12:01;;;;;;;14.95;8.18;;;20.30;55.90;;;;;;4941255;28;89815;-65
2022/05/02 11:14:30;;;;;;;11.93;8.43;;;20.40;56.00;;;;;;4945081;28;86289;-65
2022/05/02 11:17:06;;;;;;;15.23;9.05;;;20.30;55.30;;;;;;4944123;28;85996;-66
2022/05/02 11:22:30;;;;;;;11.85;7.90;;;20.40;55.30;;;;;;4944124;28;86605;-65
2022/05/02 11:25:06;;;;;;;15.13;8.35;;;20.40;55.40;;;;;;4942632;28;86310;-66
2022/05/02 11:27:38;;;;;;;18.02;7.53;;;20.40;55.20;;;;;;4958474;28;86301;-66
2022/05/02 11:30:11;;;;;;;17.40;8.23;;;20.40;55.40;;;;;;4940453;28;89846;-65
2022/05/02 11:33:02;;;;;;;12.85;7.72;;;20.40;55.50;;;;;;4935566;28;88088;-65
2022/05/02 11:35:31;;;;;;;15.10;7.55;;;20.40;55.50;;;;;;4943743;28;85826;-66
2022/05/02 11:38:31;;;;;;;11.57;7.13;;;20.40;55.60;;;;;;4944205;28;86184;-66
2022/05/02 11:41:18;;;;;;;10.73;7.55;;;20.40;55.70;;;;;;4942757;28;90429;-65
2022/05/02 11:43:46;;;;;;;13.40;7.00;;;20.40;55.80;;;;;;4943707;28;86317;-65
2022/05/02 11:46:23;;;;;;;17.17;7.40;;;20.40;55.70;;;;;;4943509;28;86631;-65
2022/05/02 11:49:10;;;;;;;13.30;7.38;;;20.40;55.70;;;;;;4944205;28;87010;-65
2022/05/02 11:51:43;;;;;;;14.13;7.28;;;20.40;56.00;;;;;;4951980;28;89942;-65
2022/05/02 11:54:21;;;;;;;10.95;7.05;;;20.40;56.00;;;;;;4942790;28;86854;-65
2022/05/02 11:56:58;;;;;;;14.45;7.63;;;20.40;56.20;;;;;;4945526;28;86129;-65
2022/05/02 11:59:32;;;;;;;12.23;7.90;;;20.40;56.10;;;;;;4942153;28;86255;-65
2022/05/02 12:02:03;;;;;;;14.60;7.53;;;20.40;56.00;;;;;;4942580;28;87170;-65
2022/05/02 12:04:40;;;;;;;11.75;7.03;;;20.40;56.10;;;;;;4943311;28;86535;-65
2022/05/02 12:07:13;;;;;;;12.40;7.05;;;20.40;56.10;;;;;;4941981;28;86671;-66
2022/05/02 12:09:40;;;;;;;12.57;7.13;;;20.40;56.10;;;;;;4942952;28;85848;-65
2022/05/02 12:12:07;;;;;;;9.07;6.32;;;20.40;56.20;;;;;;4943167;28;86308;-65
2022/05/02 12:14:33;;;;;;;12.07;7.05;;;20.40;56.30;;;;;;4947124;28;86409;-65
2022/05/02 12:17:09;;;;;;;12.85;7.47;;;20.40;56.30;;;;;;4945214;28;86702;-65
2022/05/02 12:19:36;;;;;;;8.43;6.60;;;20.40;56.40;;;;;;4950456;28;86496;-66
2022/05/02 12:22:26;;;;;;;11.18;6.10;;;20.40;56.30;;;;;;4942038;28;92146;-65
2022/05/02 12:24:55;;;;;;;9.38;5.95;;;20.40;56.30;;;;;;4940114;28;90607;-65
2022/05/02 12:27:22;;;;;;;9.40;6.73;;;20.40;56.30;;;;;;4942927;28;86459;-65
2022/05/02 12:30:01;;;;;;;12.00;7.18;;;20.40;56.40;;;;;;4942271;28;86263;-65
2022/05/02 12:32:30;;;;;;;12.27;7.37;;;20.40;56.40;;;;;;4942621;28;86648;-66
2022/05/02 12:34:56;;;;;;;;;;;20.40;56.40;;;;;;4942054;28;86020;-65
2022/05/02 12:37:33;;;;;;;9.32;6.80;;;20.40;56.50;;;;;;4942546;28;86979;-65
2022/05/02 12:40:12;;;;;;;15.00;7.45;;;20.40;56.50;;;;;;4942694;28;86261;-65
2022/05/02 12:42:47;;;;;;;10.93;7.10;;;20.40;56.40;;;;;;4943351;28;86945;-65
2022/05/02 12:45:16;;;;;;;10.05;6.80;;;20.40;56.40;;;;;;4942332;28;86419;-65
2022/05/02 12:47:50;;;;;;;8.70;6.57;;;20.40;56.50;;;;;;4939781;28;86385;-65
2022/05/02 12:50:25;;;;;;;14.25;6.88;;;20.40;56.50;;;;;;4940389;28;85849;-65
2022/05/02 12:52:56;;;;;;;12.05;7.25;;;20.40;56.60;;;;;;4941714;28;86870;-65
2022/05/02 12:55:24;;;;;;;8.65;5.90;;;20.40;56.60;;;;;;4941366;28;86629;-65
2022/05/02 13:00:41;;;;;;;11.15;6.63;;;20.40;56.30;;;;;;4937764;28;86783;-65
2022/05/02 13:03:10;;;;;;;9.32;6.72;;;20.40;56.10;;;;;;4942921;28;87112;-65
2022/05/02 13:05:39;;;;;;;22.97;7.40;;;20.40;56.10;;;;;;4937295;28;88428;-65
2022/05/02 13:08:13;;;;;;;9.18;7.22;;;20.40;56.00;;;;;;4939472;28;85952;-65
2022/05/02 13:10:40;;;;;;;9.88;6.85;;;20.40;56.00;;;;;;4940245;28;86338;-66
2022/05/02 13:13:08;;;;;;;9.23;6.82;;;20.40;56.00;;;;;;4939836;28;88063;-66
2022/05/02 13:15:48;;;;;;;10.35;5.93;;;20.40;56.00;;;;;;4938688;28;89904;-66
2022/05/02 13:18:23;;;;;;;13.43;6.53;;;20.40;56.10;;;;;;4941098;28;86847;-65
2022/05/02 13:21:03;;;;;;;9.35;6.50;;;20.40;56.20;;;;;;4941791;28;86273;-65
2022/05/02 13:23:40;;;;;;;8.68;6.28;;;20.40;55.90;;;;;;4941091;28;87548;-66
2022/05/02 13:26:23;;;;;;;9.57;5.63;;;20.40;56.00;;;;;;4952711;28;89541;-65
2022/05/02 13:29:19;;;;;;;8.18;5.93;;;20.40;58.10;;;;;;4940463;28;88069;-66
2022/05/02 13:31:45;;;;;;;9.65;5.45;;;20.50;58.20;;;;;;4946851;28;86680;-65
2022/05/02 13:34:32;;;;;;;14.50;6.10;;;20.50;57.90;;;;;;4938819;28;90066;-65
2022/05/02 13:37:03;;;;;;;12.60;6.35;;;20.50;55.10;;;;;;4939843;28;86458;-65
2022/05/02 13:39:51;;;;;;;7.20;4.57;;;20.50;54.90;;;;;;4938993;28;85730;-64
2022/05/02 13:43:02;;;;;;;10.35;5.70;;;20.60;56.80;;;;;;4941237;28;87380;-65